createdAt,value
2022-11-29T00:00:16.517Z,12.90
2022-11-29T00:03:18.879Z,14.10
2022-11-29T00:06:30.170Z,13.57
2022-11-29T00:09:32.464Z,13.88
2022-11-29T00:12:34.727Z,13.70
2022-11-29T00:15:37.908Z,12.93
2022-11-29T00:18:40.189Z,14.00
2022-11-29T00:21:42.470Z,12.53
2022-11-29T00:24:44.906Z,12.27
2022-11-29T00:27:47.333Z,11.60
2022-11-29T00:30:49.692Z,13.02
2022-11-29T00:33:52.604Z,11.93
2022-11-29T00:36:54.944Z,12.30
2022-11-29T00:39:57.343Z,11.27
2022-11-29T00:42:59.601Z,12.05
2022-11-29T00:46:04.313Z,11.43
2022-11-29T00:49:06.626Z,10.40
2022-11-29T00:52:08.903Z,12.17
2022-11-29T00:55:11.245Z,11.65
2022-11-29T00:58:13.655Z,10.48
2022-11-29T01:01:16.364Z,11.13
2022-11-29T01:04:18.975Z,9.27
2022-11-29T01:07:21.225Z,9.20
2022-11-29T01:10:25.561Z,10.05
2022-11-29T01:13:27.864Z,9.80
2022-11-29T01:16:33.798Z,10.57
2022-11-29T01:19:38.024Z,8.80
2022-11-29T01:22:40.369Z,10.23
2022-11-29T01:25:42.673Z,9.98
2022-11-29T01:28:50.704Z,9.73
2022-11-29T01:31:53.081Z,8.68
2022-11-29T01:34:55.372Z,10.63
2022-11-29T01:37:57.709Z,9.40
2022-11-29T01:41:06.650Z,8.32
2022-11-29T01:44:12.015Z,9.40
2022-11-29T01:47:14.319Z,8.35
2022-11-29T01:50:16.965Z,9.63
2022-11-29T01:53:20.424Z,8.60
2022-11-29T01:56:23.267Z,8.35
2022-11-29T01:59:27.523Z,9.80
2022-11-29T02:02:38.776Z,9.73
2022-11-29T02:05:43.647Z,8.50
2022-11-29T02:08:46.088Z,8.67
2022-11-29T02:12:14.536Z,8.15
2022-11-29T02:15:29.430Z,8.80
2022-11-29T02:18:47.169Z,9.52
2022-11-29T02:21:53.454Z,9.83
2022-11-29T02:25:11.027Z,8.43
2022-11-29T02:28:48.850Z,10.32
2022-11-29T02:32:09.693Z,10.40
2022-11-29T02:35:35.745Z,9.35
2022-11-29T02:38:59.726Z,8.33
2022-11-29T02:42:29.951Z,8.30
2022-11-29T02:46:00.871Z,7.88
2022-11-29T02:49:12.223Z,8.13
2022-11-29T02:52:25.454Z,8.80
2022-11-29T02:55:33.958Z,8.03
2022-11-29T02:58:39.192Z,7.13
2022-11-29T03:02:17.183Z,8.23
2022-11-29T03:05:45.096Z,9.02
2022-11-29T03:08:57.203Z,8.52
2022-11-29T03:12:19.740Z,8.20
2022-11-29T03:15:36.610Z,7.93
2022-11-29T03:18:38.865Z,7.95
2022-11-29T03:21:55.771Z,9.73
2022-11-29T03:25:22.755Z,7.28
2022-11-29T03:28:42.012Z,8.30
2022-11-29T03:32:16.729Z,7.77
2022-11-29T03:35:24.551Z,8.15
2022-11-29T03:38:57.171Z,7.97
2022-11-29T03:42:06.227Z,8.50
2022-11-29T03:45:15.677Z,8.43
2022-11-29T03:48:22.722Z,7.43
2022-11-29T03:51:56.568Z,7.53
2022-11-29T03:55:23.949Z,8.65
2022-11-29T03:58:34.980Z,9.10
2022-11-29T04:02:09.521Z,9.20
2022-11-29T04:05:33.310Z,8.60
2022-11-29T04:08:38.570Z,7.95
2022-11-29T04:12:07.337Z,8.40
2022-11-29T04:15:34.242Z,8.45
2022-11-29T04:18:51.725Z,7.90
2022-11-29T04:22:19.067Z,7.40
2022-11-29T04:25:27.229Z,6.97
2022-11-29T04:28:48.971Z,7.22
2022-11-29T04:32:20.417Z,8.40
2022-11-29T04:35:50.683Z,7.33
2022-11-29T04:39:32.478Z,8.03
2022-11-29T04:42:49.666Z,6.60
2022-11-29T04:46:21.645Z,7.28
2022-11-29T04:49:33.036Z,7.35
2022-11-29T04:52:38.493Z,7.83
2022-11-29T04:55:54.970Z,8.53
2022-11-29T04:59:05.048Z,7.53
2022-11-29T05:02:32.595Z,8.48
2022-11-29T05:05:55.023Z,8.45
2022-11-29T05:08:57.269Z,8.17
2022-11-29T05:12:17.715Z,8.33
2022-11-29T05:15:45.237Z,7.85
2022-11-29T05:19:29.175Z,7.20
2022-11-29T05:22:58.762Z,7.68
2022-11-29T05:26:13.259Z,8.50
2022-11-29T05:29:21.911Z,7.77
2022-11-29T05:32:45.563Z,9.60
2022-11-29T05:36:17.138Z,9.05
2022-11-29T05:43:02.410Z,8.15
2022-11-29T05:46:12.898Z,8.95
2022-11-29T05:49:27.090Z,8.53
2022-11-29T05:52:32.310Z,8.90
2022-11-29T05:55:48.389Z,7.70
2022-11-29T05:58:54.664Z,8.57
2022-11-29T06:02:36.077Z,8.60
2022-11-29T06:05:47.561Z,9.03
2022-11-29T06:09:00.502Z,9.90
2022-11-29T06:12:06.871Z,9.43
2022-11-29T06:15:18.253Z,8.32
2022-11-29T06:18:46.440Z,8.75
2022-11-29T06:22:11.414Z,9.07
2022-11-29T06:25:27.704Z,8.70
2022-11-29T06:28:51.286Z,9.15
2022-11-29T06:32:03.699Z,9.70
2022-11-29T06:35:24.196Z,10.23
2022-11-29T06:38:29.668Z,11.47
2022-11-29T06:41:32.323Z,10.45
2022-11-29T06:44:34.900Z,10.40
2022-11-29T06:47:50.725Z,9.32
2022-11-29T06:51:21.395Z,9.15
2022-11-29T06:54:47.204Z,13.53
2022-11-29T06:58:04.929Z,14.25
2022-11-29T07:01:29.100Z,12.65
2022-11-29T07:04:45.719Z,12.63
2022-11-29T07:07:48.963Z,11.82
2022-11-29T07:10:54.075Z,10.23
2022-11-29T07:13:56.703Z,9.90
2022-11-29T07:17:15.639Z,9.57
2022-11-29T07:20:39.944Z,9.77
2022-11-29T07:23:42.269Z,9.90
2022-11-29T07:26:59.732Z,9.27
2022-11-29T07:30:16.275Z,10.23
2022-11-29T07:33:53.945Z,9.60
2022-11-29T07:37:14.583Z,10.20
2022-11-29T07:40:37.781Z,9.20
2022-11-29T07:44:01.524Z,10.57
2022-11-29T07:47:03.889Z,10.52
2022-11-29T07:50:06.717Z,10.02
2022-11-29T07:53:16.927Z,9.65
2022-11-29T07:56:19.165Z,10.32
2022-11-29T07:59:21.547Z,11.40
2022-11-29T08:02:30.877Z,10.50
2022-11-29T08:05:33.254Z,10.70
2022-11-29T08:08:40.609Z,10.60
2022-11-29T08:11:48.973Z,9.85
2022-11-29T08:14:51.207Z,10.00
2022-11-29T08:17:53.451Z,10.00
2022-11-29T08:20:55.710Z,10.10
2022-11-29T08:23:58.008Z,8.88
2022-11-29T08:27:00.264Z,9.73
2022-11-29T08:30:03.103Z,10.27
2022-11-29T08:33:05.565Z,10.55
2022-11-29T08:36:18.996Z,10.95
2022-11-29T08:39:21.375Z,11.10
2022-11-29T08:42:23.891Z,10.75
2022-11-29T08:45:26.288Z,12.00
2022-11-29T08:48:30.892Z,10.98
2022-11-29T08:51:33.157Z,11.07
2022-11-29T08:54:35.348Z,9.80
2022-11-29T08:57:41.127Z,10.40
2022-11-29T09:00:46.543Z,10.70
2022-11-29T09:04:03.084Z,10.38
2022-11-29T09:07:05.338Z,10.48
2022-11-29T09:10:09.043Z,10.52
2022-11-29T09:13:12.263Z,10.38
2022-11-29T09:16:20.538Z,11.13
2022-11-29T09:19:23.109Z,9.77
2022-11-29T09:22:25.475Z,11.68
2022-11-29T09:25:27.876Z,11.38
2022-11-29T09:28:30.550Z,11.48
2022-11-29T09:31:33.743Z,11.40
2022-11-29T09:34:36.179Z,12.10
2022-11-29T09:37:42.479Z,10.70
2022-11-29T09:40:54.260Z,11.05
2022-11-29T09:44:27.522Z,10.85
2022-11-29T09:48:03.721Z,10.00
2022-11-29T09:51:18.381Z,9.43
2022-11-29T09:54:23.642Z,11.20
2022-11-29T09:57:27.280Z,11.48
2022-11-29T10:00:31.233Z,12.23
2022-11-29T10:03:45.249Z,11.33
2022-11-29T10:06:57.209Z,12.35
2022-11-29T10:10:03.898Z,11.52
2022-11-29T10:13:28.186Z,9.48
2022-11-29T10:16:43.536Z,9.68
2022-11-29T10:19:49.537Z,11.77
2022-11-29T10:22:56.168Z,11.55
2022-11-29T10:25:58.953Z,11.57
2022-11-29T10:29:01.547Z,10.48
2022-11-29T10:32:12.352Z,10.82
2022-11-29T10:35:16.899Z,10.57
2022-11-29T10:38:34.764Z,9.57
2022-11-29T10:41:37.103Z,10.55
2022-11-29T10:44:39.372Z,10.95
2022-11-29T10:47:41.721Z,11.23
2022-11-29T10:50:45.897Z,12.40
2022-11-29T10:53:49.183Z,11.73
2022-11-29T10:56:52.264Z,11.48
2022-11-29T11:00:11.738Z,11.45
2022-11-29T11:03:29.885Z,12.07
2022-11-29T11:06:52.805Z,10.53
2022-11-29T11:09:56.963Z,10.80
2022-11-29T11:13:19.890Z,11.55
2022-11-29T11:16:25.868Z,11.93
2022-11-29T11:19:35.326Z,14.45
2022-11-29T11:22:40.295Z,16.77
2022-11-29T11:25:42.611Z,23.98
2022-11-29T11:29:02.314Z,21.13
2022-11-29T11:32:05.729Z,14.95
2022-11-29T11:35:22.304Z,14.90
2022-11-29T11:38:24.615Z,14.17
2022-11-29T11:41:48.364Z,14.80
2022-11-29T11:44:53.438Z,15.40
2022-11-29T11:47:58.500Z,15.82
2022-11-29T11:51:01.689Z,15.48
2022-11-29T11:54:04.059Z,15.70
2022-11-29T11:57:17.149Z,14.80
2022-11-29T12:01:03.453Z,15.55
2022-11-29T12:04:33.985Z,16.42
2022-11-29T12:08:07.474Z,15.55
2022-11-29T12:11:08.105Z,16.67
2022-11-29T12:14:18.887Z,15.13
2022-11-29T12:17:49.209Z,16.17
2022-11-29T12:20:56.345Z,16.08
2022-11-29T12:24:21.692Z,17.73
2022-11-29T12:27:24.051Z,17.00
2022-11-29T12:30:26.357Z,16.10
2022-11-29T12:33:38.766Z,16.73
2022-11-29T12:37:26.030Z,15.90
2022-11-29T12:40:34.689Z,16.15
2022-11-29T12:44:04.084Z,17.47
2022-11-29T12:47:38.337Z,16.63
2022-11-29T12:51:02.167Z,17.25
2022-11-29T12:54:38.101Z,17.23
2022-11-29T12:57:54.325Z,16.95
2022-11-29T13:01:19.748Z,16.37
2022-11-29T13:04:40.812Z,17.40
2022-11-29T13:08:04.806Z,17.02
2022-11-29T13:11:31.580Z,17.25
2022-11-29T13:14:49.719Z,18.10
2022-11-29T13:17:55.082Z,17.90
2022-11-29T13:21:15.955Z,18.58
2022-11-29T13:24:26.152Z,16.58
2022-11-29T13:27:34.865Z,18.15
2022-11-29T13:30:38.755Z,17.77
2022-11-29T13:33:59.342Z,17.97
2022-11-29T13:37:07.576Z,17.38
2022-11-29T13:40:22.496Z,18.33
2022-11-29T13:43:33.860Z,17.90
2022-11-29T13:46:39.230Z,17.27
2022-11-29T13:50:04.505Z,15.87
2022-11-29T13:53:19.917Z,15.40
2022-11-29T13:56:32.797Z,16.50
2022-11-29T13:59:40.549Z,17.23
2022-11-29T14:02:48.338Z,16.45
2022-11-29T14:05:51.584Z,16.43
2022-11-29T14:12:35.894Z,19.25
2022-11-29T14:15:38.505Z,18.35
2022-11-29T14:19:10.195Z,16.90
2022-11-29T14:22:20.861Z,17.43
2022-11-29T14:25:50.669Z,17.80
2022-11-29T14:28:47.364Z,17.15
2022-11-29T14:31:52.015Z,16.10
2022-11-29T14:35:12.543Z,17.58
2022-11-29T14:38:31.162Z,17.33
2022-11-29T14:41:54.494Z,17.75
2022-11-29T14:45:04.706Z,19.05
2022-11-29T14:48:25.641Z,17.95
2022-11-29T14:51:30.768Z,19.00
2022-11-29T14:54:33.831Z,18.93
2022-11-29T14:57:48.293Z,19.00
2022-11-29T15:04:27.513Z,18.35
2022-11-29T15:07:30.857Z,19.73
2022-11-29T15:10:36.585Z,18.37
2022-11-29T15:13:45.802Z,18.30
2022-11-29T15:17:04.797Z,18.63
2022-11-29T15:20:48.474Z,17.48
2022-11-29T15:23:58.832Z,19.17
2022-11-29T15:27:02.743Z,19.73
2022-11-29T15:30:34.673Z,18.67
2022-11-29T15:33:39.807Z,20.48
2022-11-29T15:36:43.920Z,18.10
2022-11-29T15:39:46.169Z,19.52
2022-11-29T15:43:02.666Z,19.40
2022-11-29T15:46:05.107Z,19.40
2022-11-29T15:49:28.060Z,19.40
2022-11-29T15:52:33.910Z,17.65
2022-11-29T15:55:36.446Z,20.20
2022-11-29T15:58:39.024Z,19.17
2022-11-29T16:01:43.257Z,18.95
2022-11-29T16:04:47.385Z,18.35
2022-11-29T16:07:53.733Z,19.38
2022-11-29T16:10:56.295Z,19.70
2022-11-29T16:14:12.820Z,20.13
2022-11-29T16:17:15.406Z,19.77
2022-11-29T16:20:18.788Z,19.40
2022-11-29T16:23:21.107Z,19.58
2022-11-29T16:26:24.789Z,20.42
2022-11-29T16:29:30.417Z,19.53
2022-11-29T16:32:35.503Z,19.70
2022-11-29T16:35:37.848Z,21.60
2022-11-29T16:38:46.186Z,20.60
2022-11-29T16:42:26.182Z,21.08
2022-11-29T16:45:48.945Z,18.97
2022-11-29T16:48:52.776Z,20.58
2022-11-29T16:51:55.067Z,19.52
2022-11-29T16:54:57.480Z,18.60
2022-11-29T16:57:59.868Z,19.65
2022-11-29T17:01:19.689Z,21.40
2022-11-29T17:04:24.362Z,18.90
2022-11-29T17:07:30.208Z,19.90
2022-11-29T17:10:32.791Z,24.10
2022-11-29T17:13:35.027Z,18.05
2022-11-29T17:16:37.366Z,19.73
2022-11-29T17:19:39.649Z,20.58
2022-11-29T17:22:42.045Z,18.90
2022-11-29T17:25:44.440Z,25.40
2022-11-29T17:28:48.353Z,21.67
2022-11-29T17:31:50.831Z,20.73
2022-11-29T17:34:53.283Z,22.73
2022-11-29T17:37:55.584Z,22.95
2022-11-29T17:40:58.050Z,20.70
2022-11-29T17:44:00.913Z,20.67
2022-11-29T17:47:03.186Z,24.70
2022-11-29T17:50:06.104Z,21.02
2022-11-29T17:53:08.382Z,26.45
2022-11-29T17:56:12.807Z,22.80
2022-11-29T17:59:15.184Z,21.77
2022-11-29T18:02:17.563Z,20.00
2022-11-29T18:05:20.137Z,20.42
2022-11-29T18:08:22.379Z,21.13
2022-11-29T18:11:27.988Z,20.90
2022-11-29T18:14:31.113Z,20.15
2022-11-29T18:17:33.532Z,21.90
2022-11-29T18:20:35.802Z,20.42
2022-11-29T18:23:41.227Z,21.70
2022-11-29T18:26:43.893Z,18.77
2022-11-29T18:29:46.382Z,21.27
2022-11-29T18:32:48.884Z,19.70
2022-11-29T18:35:51.473Z,20.40
2022-11-29T18:39:05.035Z,20.52
2022-11-29T18:42:07.390Z,20.27
2022-11-29T18:45:10.023Z,22.27
2022-11-29T18:48:12.486Z,20.77
2022-11-29T18:51:16.930Z,21.40
2022-11-29T18:54:19.634Z,20.23
2022-11-29T18:57:21.983Z,21.02
2022-11-29T19:00:24.592Z,21.20
2022-11-29T19:03:27.220Z,20.90
2022-11-29T19:06:39.030Z,20.73
2022-11-29T19:09:42.311Z,21.88
2022-11-29T19:12:44.676Z,21.17
2022-11-29T19:15:54.240Z,21.05
2022-11-29T19:18:58.018Z,19.53
2022-11-29T19:22:00.675Z,19.02
2022-11-29T19:25:02.959Z,19.70
2022-11-29T19:28:10.694Z,17.73
2022-11-29T19:31:17.879Z,19.25
2022-11-29T19:34:20.365Z,18.53
2022-11-29T19:37:22.681Z,17.17
2022-11-29T19:40:25.109Z,18.13
2022-11-29T19:43:27.678Z,18.40
2022-11-29T19:46:41.557Z,19.15
2022-11-29T19:49:46.755Z,18.73
2022-11-29T19:52:49.434Z,18.40
2022-11-29T19:55:51.707Z,20.25
2022-11-29T19:58:54.364Z,20.90
2022-11-29T20:01:59.477Z,22.67
2022-11-29T20:05:01.939Z,23.37
2022-11-29T20:08:04.393Z,24.30
2022-11-29T20:11:18.277Z,23.77
2022-11-29T20:14:20.725Z,22.75
2022-11-29T20:17:22.981Z,23.42
2022-11-29T20:20:25.319Z,23.57
2022-11-29T20:23:27.618Z,23.65
2022-11-29T20:26:31.268Z,21.95
2022-11-29T20:29:33.824Z,22.00
2022-11-29T20:32:36.448Z,21.38
2022-11-29T20:35:39.075Z,20.93
2022-11-29T20:38:51.377Z,21.30
2022-11-29T20:41:53.621Z,20.65
2022-11-29T20:44:57.404Z,21.33
2022-11-29T20:48:11.390Z,22.05
2022-11-29T20:51:13.915Z,22.47
2022-11-29T20:54:17.303Z,21.88
2022-11-29T20:57:19.576Z,21.88
2022-11-29T21:00:22.189Z,22.13
2022-11-29T21:03:24.973Z,21.67
2022-11-29T21:06:27.279Z,21.73
2022-11-29T21:09:29.596Z,22.52
2022-11-29T21:12:32.369Z,21.05
2022-11-29T21:15:34.908Z,21.25
2022-11-29T21:18:37.737Z,21.25
2022-11-29T21:21:58.794Z,22.43
2022-11-29T21:25:22.440Z,22.10
2022-11-29T21:28:29.275Z,21.50
2022-11-29T21:31:31.928Z,22.77
2022-11-29T21:34:34.932Z,23.55
2022-11-29T21:37:37.718Z,20.87
2022-11-29T21:40:40.081Z,22.92
2022-11-29T21:44:05.469Z,23.38
2022-11-29T21:47:04.924Z,22.55
2022-11-29T21:50:07.772Z,22.25
2022-11-29T21:53:10.191Z,21.27
2022-11-29T21:56:12.996Z,20.33
2022-11-29T21:59:15.256Z,20.50
2022-11-29T22:02:17.665Z,21.40
2022-11-29T22:05:20.024Z,20.27
2022-11-29T22:08:22.283Z,20.33
2022-11-29T22:11:36.698Z,19.95
2022-11-29T22:14:40.402Z,20.23
2022-11-29T22:17:42.679Z,20.77
2022-11-29T22:20:47.311Z,20.45
2022-11-29T22:23:49.781Z,20.13
2022-11-29T22:26:52.605Z,21.15
2022-11-29T22:29:54.990Z,21.15
2022-11-29T22:32:57.311Z,20.70
2022-11-29T22:36:07.517Z,20.02
2022-11-29T22:39:09.988Z,20.10
2022-11-29T22:42:12.253Z,20.85
2022-11-29T22:45:14.572Z,20.08
2022-11-29T22:48:16.828Z,19.83
2022-11-29T22:51:20.957Z,20.88
2022-11-29T22:54:23.245Z,18.60
2022-11-29T22:57:25.486Z,19.40
2022-11-29T23:00:27.755Z,20.70
2022-11-29T23:03:33.128Z,18.88
2022-11-29T23:06:41.420Z,19.70
2022-11-29T23:09:43.738Z,19.83
2022-11-29T23:12:47.660Z,19.50
2022-11-29T23:15:50.060Z,18.70
2022-11-29T23:18:53.619Z,18.15
2022-11-29T23:21:56.572Z,18.60
2022-11-29T23:24:58.861Z,18.53
2022-11-29T23:28:01.162Z,18.80
2022-11-29T23:31:03.620Z,19.65
2022-11-29T23:34:05.943Z,18.45
2022-11-29T23:37:08.217Z,17.63
2022-11-29T23:40:10.959Z,17.97
2022-11-29T23:43:13.302Z,17.00
2022-11-29T23:46:18.200Z,17.95
2022-11-29T23:49:20.500Z,18.75
2022-11-29T23:52:22.903Z,18.35
2022-11-29T23:55:25.756Z,19.43
2022-11-29T23:58:28.967Z,17.27
